ADDS METAR Data INFO
IDs: Format: Raw Decoded Include TAF

Data at: 0524 UTC 19 Jan 2018

KOGS 190515Z AUTO 23006KT 10SM OVC014 M03/M06 A2993 RMK AO2 T10351060
KOGS 190455Z AUTO 23007KT 10SM SCT016 OVC027 M03/M06 A2994 RMK AO2 T10351060
KOGS 190435Z AUTO 22007KT 10SM BKN027 M03/M06 A2994 RMK AO2 T10351060
KOGS 190415Z AUTO 23006KT 10SM BKN027 M03/M06 A2994 RMK AO2 T10331060
KOGS 190355Z AUTO 23007KT 10SM BKN027 M03/M06 A2994 RMK AO2 T10331060 410251062
KOGS 190335Z AUTO 22006KT 10SM OVC029 M03/M06 A2993 RMK AO2 T10331060
KOGS 190315Z AUTO 22007KT 10SM OVC029 M03/M06 A2993 RMK AO2 T10331060
KOGS 190255Z AUTO 22006KT 10SM OVC029 M03/M06 A2993 RMK AO2 T10331060
KOGS 190235Z AUTO 22007KT 10SM OVC029 M03/M06 A2993 RMK AO2 T10331060
KOGS 190215Z AUTO 22007KT 10SM OVC031 M03/M06 A2993 RMK AO2 T10351061
KOGS 190155Z AUTO 23008KT 10SM OVC031 M03/M06 A2994 RMK AO2 T10351062
KOGS 190135Z AUTO 22006KT 10SM OVC031 M03/M06 A2994 RMK AO2 T10351063
KOGS 190115Z AUTO 22007KT 10SM OVC031 M04/M06 A2994 RMK AO2 T10361065
KOGS 190055Z AUTO 22008G14KT 10SM OVC031 M04/M07 A2993 RMK AO2 T10371066
KOGS 190035Z AUTO 23008KT 10SM OVC033 M04/M07 A2994 RMK AO2 T10381067
KOGS 190015Z AUTO 22008G15KT 10SM OVC033 M04/M07 A2994 RMK AO2 T10381067
KOGS 182355Z AUTO 23008KT 10SM OVC033 M04/M07 A2994 RMK AO2 T10401067 11025 21040
KOGS 182335Z AUTO 23008KT 10SM OVC033 M04/M07 A2994 RMK AO2 T10401066
KOGS 182315Z AUTO 22007KT 10SM OVC033 M04/M06 A2994 RMK AO2 T10401065
KOGS 182255Z AUTO 22007KT 10SM OVC033 M04/M06 A2994 RMK AO2 T10401065
KOGS 182235Z AUTO 23006KT 10SM OVC033 M04/M06 A2994 RMK AO2 T10401065
KOGS 182215Z AUTO 21007KT 10SM OVC035 M04/M06 A2994 RMK AO2 T10381063
KOGS 182155Z AUTO 23003KT 10SM -SN OVC035 M04/M06 A2994 RMK AO2 T10361063
KOGS 182135Z AUTO 23008KT 10SM -SN OVC035 M03/M06 A2994 RMK AO2 T10351062
KOGS 182115Z AUTO 23006KT 10SM OVC035 M03/M06 A2995 RMK AO2 T10331062
KOGS 182055Z AUTO 23006KT 10SM OVC035 M03/M06 A2995 RMK AO2 T10311062
KOGS 182035Z AUTO 23006KT 10SM OVC037 M03/M06 A2994 RMK AO2 T10301062
KOGS 182015Z AUTO 23006KT 10SM OVC037 M03/M06 A2994 RMK AO2 T10301064
KOGS 181955Z AUTO 23006KT 10SM OVC039 M03/M06 A2994 RMK AO2 T10271062
KOGS 181915Z AUTO 23007KT 10SM OVC039 M03/M06 A2994 RMK AO2 T10261064
KOGS 181855Z AUTO 23007KT 10SM SCT034 BKN039 M03/M06 A2993 RMK AO2 T10261065
KOGS 181835Z AUTO 24009KT 10SM OVC039 M03/M06 A2994 RMK AO2 T10271065
KOGS 181815Z AUTO 24006KT 10SM OVC041 M03/M06 A2994 RMK AO2 T10271065
KOGS 181755Z AUTO 24007KT 10SM -SN OVC039 M03/M06 A2994 RMK AO2 T10261063 11026 21050
KOGS 181735Z AUTO 25007KT 10SM OVC037 M03/M06 A2995 RMK AO2 T10281064
KOGS 181715Z AUTO 24007KT 10SM -SN SCT008 SCT012 OVC037 M03/M07 A2996 RMK AO2 T10311066
KOGS 181655Z AUTO 22008KT 190V250 7SM -SN SCT007 BKN030 OVC037 M03/M07 A2995 RMK AO2 T10311067
KOGS 181635Z AUTO 23004KT 7SM -SN SCT010 OVC030 M03/M07 A2996 RMK AO2 T10311067
KOGS 181615Z AUTO 22007KT 7SM -SN SCT006 BKN009 OVC030 M03/M06 A2996 RMK AO2 T10301065
KOGS 181555Z AUTO 23004KT 7SM -SN SCT005 BKN009 BKN013 M03/M06 A2997 RMK AO2 T10301062
KOGS 181535Z AUTO 22007KT 7SM -SN SCT007 BKN010 OVC034 M03/M06 A2997 RMK AO2 T10321063
KOGS 181515Z AUTO 22007KT 5SM -SN SCT008 BKN012 OVC034 M03/M06 A2997 RMK AO2 T10341064
KOGS 181455Z AUTO 21007KT 7SM -SN BKN010 BKN016 BKN035 M04/M06 A2997 RMK AO2 T10361063
KOGS 181435Z AUTO 21008KT 7SM -SN SCT010 SCT032 M04/M06 A2997 RMK AO2 T10401065
KOGS 181415Z AUTO 21008KT 10SM SCT041 M04/M06 A2997 RMK AO2 T10411063
KOGS 181355Z AUTO 20007KT 10SM OVC041 M04/M06 A2996 RMK AO2 T10451063
KOGS 181335Z AUTO 20007KT 10SM OVC041 M05/M06 A2996 RMK AO2 T10461065
KOGS 181315Z AUTO 20007KT 10SM OVC041 M05/M06 A2996 RMK AO2 T10471065
KOGS 181255Z AUTO 20008KT 10SM OVC041 M05/M07 A2996 RMK AO2 T10481066
KOGS 181235Z AUTO 20007KT 10SM OVC041 M05/M07 A2996 RMK AO2 T10501068
KOGS 181215Z AUTO 20007KT 10SM OVC041 M05/M07 A2996 RMK AO2 T10501070
KOGS 181155Z AUTO 20008KT 10SM OVC041 M05/M07 A2996 RMK AO2 T10471072 11036 21060
KOGS 181135Z AUTO 21007KT 10SM OVC041 M04/M07 A2996 RMK AO2 T10421075
KOGS 181115Z AUTO 24008G17KT 10SM OVC041 M04/M08 A2996 RMK AO2 T10361076
KOGS 181055Z AUTO 23012G18KT 10SM OVC041 M04/M08 A2996 RMK AO2 T10361076
KOGS 181035Z AUTO 23009G16KT 10SM OVC039 M04/M07 A2996 RMK AO2 T10371072
KOGS 181015Z AUTO 23010G14KT 10SM -SN SCT010 SCT014 OVC037 M04/M07 A2997 RMK AO2 T10371070
KOGS 180955Z AUTO 24008G14KT 10SM -SN SCT012 BKN028 M04/M07 A2997 RMK AO2 T10371069
KOGS 180935Z AUTO 25010G15KT 10SM SCT010 SCT014 BKN028 M04/M06 A2997 RMK AO2 T10401062
KOGS 180915Z AUTO 22004KT 10SM -SN SCT010 SCT023 BKN028 M05/M07 A2998 RMK AO2 T10511068
KOGS 180855Z AUTO 20005KT 10SM BKN026 M05/M07 A2999 RMK AO2 T10511069
KOGS 180835Z AUTO 20005KT 10SM BKN024 BKN030 M05/M07 A2999 RMK AO2 T10511070
KOGS 180815Z AUTO 20006KT 10SM BKN024 OVC031 M05/M07 A3000 RMK AO2 T10521070
KOGS 180755Z AUTO 20006KT 10SM BKN026 OVC031 M05/M07 A3001 RMK AO2 T10531072
KOGS 180735Z AUTO 20007KT 10SM BKN026 M05/M07 A3001 RMK AO2 T10541073
KOGS 180715Z AUTO 20006KT 10SM SCT022 OVC029 M05/M07 A3001 RMK AO2 T10551075
KOGS 180655Z AUTO 20008KT 10SM SCT021 OVC027 M05/M07 A3001 RMK AO2 T10551075
KOGS 180635Z AUTO 20007KT 10SM SCT023 OVC029 M05/M07 A3001 RMK AO2 T10551075
KOGS 180615Z AUTO 20010KT 10SM BKN023 OVC029 M06/M08 A3001 RMK AO2 T10601078
KOGS 180555Z AUTO 20009KT 10SM BKN023 BKN029 M06/M08 A3001 RMK AO2 T10601080 11046 21072
KOGS 180535Z AUTO 20008KT 10SM BKN023 BKN031 M06/M08 A3002 RMK AO2 T10621080
KOGS 180515Z AUTO 20010KT 10SM SCT022 OVC029 M06/M08 A3002 RMK AO2 T10611080
KOGS 180455Z AUTO 20011KT 10SM SCT022 OVC029 M06/M08 A3002 RMK AO2 T10611080
KOGS 180435Z AUTO 20010KT 10SM SCT020 OVC027 M06/M08 A3002 RMK AO2 T10561078
KOGS 180415Z AUTO 21011G20KT 10SM BKN027 M05/M07 A3004 RMK AO2 T10461071
KOGS 180355Z AUTO 22015G21KT 10SM BKN027 M05/M07 A3004 RMK AO2 T10461071 410281169
KOGS 180335Z AUTO 22015G23KT 10SM BKN023 BKN029 M05/M07 A3005 RMK AO2 T10461071
KOGS 180315Z AUTO 22014G22KT 10SM SCT023 BKN027 M05/M07 A3006 RMK AO2 T10461070
KOGS 180255Z AUTO 22014G22KT 10SM -SN SCT021 OVC029 M05/M07 A3007 RMK AO2 T10471070
KOGS 180235Z AUTO 21013G17KT 10SM -SN BKN021 BKN029 M05/M07 A3007 RMK AO2 T10481067
KOGS 180215Z AUTO 22009KT 10SM BKN018 BKN029 M05/M07 A3008 RMK AO2 T10501068
KOGS 180155Z AUTO 22011G16KT 10SM SCT015 SCT024 BKN029 M05/M07 A3008 RMK AO2 T10531073
KOGS 180135Z AUTO 21009G14KT 10SM -SN BKN029 BKN120 M06/M08 A3008 RMK AO2 T10581078
KOGS 180115Z AUTO 22009KT 10SM BKN031 M06/M08 A3010 RMK AO2 T10631083
KOGS 180055Z AUTO 22009KT 10SM BKN031 M07/M09 A3012 RMK AO2 T10691088
KOGS 180035Z AUTO 21008KT 10SM CLR M07/M09 A3012 RMK AO2 T10711087
KOGS 180015Z AUTO 21009KT 10SM CLR M07/M08 A3013 RMK AO2 T10711085
KOGS 172355Z AUTO 21009G14KT 10SM SCT013 M07/M08 A3014 RMK AO2 T10701085 11028 21076
KOGS 172335Z AUTO 20009KT 10SM SCT013 M07/M09 A3015 RMK AO2 T10721088
KOGS 172315Z AUTO 19007KT 10SM SCT016 M07/M09 A3016 RMK AO2 T10751095
KOGS 172255Z AUTO 20007KT 10SM CLR M07/M10 A3016 RMK AO2 T10751101
KOGS 172235Z AUTO 20007KT 10SM CLR M07/M10 A3017 RMK AO2 T10751105
KOGS 172215Z AUTO 20009KT 10SM CLR M07/M10 A3017 RMK AO2 T10721102
KOGS 172155Z AUTO 21008KT 10SM CLR M07/M10 A3019 RMK AO2 T10701101
KOGS 172135Z AUTO 22008KT 10SM CLR M06/M10 A3019 RMK AO2 T10631096
KOGS 172115Z AUTO 21010G17KT 10SM SCT025 SCT030 M05/M09 A3020 RMK AO2 T10541093
KOGS 172055Z AUTO 22009KT 10SM SCT025 SCT030 M05/M09 A3020 RMK AO2 T10481086
KOGS 172035Z AUTO 21009KT 10SM SCT006 SCT012 BKN039 M04/M08 A3020 RMK AO2 T10411078
KOGS 172015Z AUTO 21012G16KT 1 1/4SM -SN BKN006 OVC012 M05/M07 A3020 RMK AO2 T10471073
KOGS 171955Z AUTO 23008KT 5SM -SN SCT008 BKN018 BKN022 M04/M07 A3021 RMK AO2 T10451075
KOGS 171935Z AUTO 23008KT 7SM -SN SCT008 SCT012 SCT018 M04/M08 A3022 RMK AO2 T10401080
KOGS 171915Z AUTO 22007KT 10SM SCT044 M03/M07 A3022 RMK AO2 T10311075
KOGS 171855Z AUTO 21006KT 10SM -SN BKN044 M03/M07 A3024 RMK AO2 T10291072
KOGS 171835Z AUTO 21009KT 10SM BKN044 M03/M08 A3024 RMK AO2 T10331076
KOGS 171815Z AUTO 22009KT 10SM OVC044 M03/M08 A3025 RMK AO2 T10351077
KOGS 171755Z AUTO 23006KT 10SM BKN044 M04/M08 A3026 RMK AO2 T10381076 11030 21106
KOGS 171735Z AUTO 21006KT 10SM SCT042 M04/M08 A3027 RMK AO2 T10441078